Time;durP1;ratioP1;P1;durP2;ratioP2;P2;SDS_P1;SDS_P2;PMS_P1;PMS_P2;Temp;Humidity;BMP_temperature;BMP_pressure;BME280_temperature;BME280_humidity;BME280_pressure;Samples;Min_cycle;Max_cycle;Signal;HPM_P1;HPM_P2
2022/11/26 00:02:15;;;;;;;;;;;4.40;99.90;;;;;;5024939;28;19975;-81
2022/11/26 00:04:41;;;;;;;;;;;4.40;99.90;;;;;;5016644;28;19922;-81
2022/11/26 00:07:08;;;;;;;;;;;4.40;99.90;;;;;;5037000;28;19929;-81
2022/11/26 00:09:34;;;;;;;;;;;4.40;99.90;;;;;;5038136;28;20280;-81
2022/11/26 00:12:00;;;;;;;;;;;4.30;99.90;;;;;;5019123;28;19921;-81
2022/11/26 00:14:26;;;;;;;;;;;4.40;99.90;;;;;;5020787;28;19921;-81
2022/11/26 00:16:52;;;;;;;;;;;4.40;99.90;;;;;;5024830;28;20054;-84
2022/11/26 00:19:17;;;;;;;;;;;4.30;99.90;;;;;;5020312;28;19956;-81
2022/11/26 00:21:43;;;;;;;;;;;4.30;99.90;;;;;;5017833;28;19924;-81
2022/11/26 00:24:27;;;;;;;;;;;4.30;99.90;;;;;;5029012;28;20028;-83
2022/11/26 00:26:54;;;;;;;;;;;4.20;99.90;;;;;;5017238;28;19925;-81
2022/11/26 00:29:20;;;;;;;;;;;4.20;99.90;;;;;;5027283;28;20028;-81
2022/11/26 00:31:45;;;;;;;;;;;4.20;99.90;;;;;;5015989;28;19925;-81
2022/11/26 00:34:11;;;;;;;;;;;4.30;99.90;;;;;;5019522;28;19922;-81
2022/11/26 00:36:37;;;;;;;;;;;4.30;99.90;;;;;;5031011;28;19943;-81
2022/11/26 00:39:02;;;;;;;;;;;4.20;99.90;;;;;;5022896;28;19921;-81
2022/11/26 00:41:31;;;;;;;;;;;4.20;99.90;;;;;;5018103;28;20025;-81
2022/11/26 00:43:57;;;;;;;;;;;4.20;99.90;;;;;;5033463;28;20360;-81
2022/11/26 00:46:23;;;;;;;;;;;4.20;99.90;;;;;;5021132;28;19983;-83
2022/11/26 00:48:49;;;;;;;;;;;4.20;99.90;;;;;;5027442;28;19924;-81
2022/11/26 00:51:17;;;;;;;;;;;4.10;99.90;;;;;;5023039;28;19975;-80
2022/11/26 00:53:43;;;;;;;;;;;4.10;99.90;;;;;;5016838;28;20291;-81
2022/11/26 00:56:19;;;;;;;;;;;4.10;99.90;;;;;;5019867;28;19921;-81
2022/11/26 00:58:45;;;;;;;;;;;4.10;99.90;;;;;;5017291;28;20285;-83
2022/11/26 01:01:11;;;;;;;;;;;4.10;99.90;;;;;;5022208;28;19929;-83
2022/11/26 01:03:41;;;;;;;;;;;4.00;99.90;;;;;;5020642;28;20000;-79
2022/11/26 01:06:22;;;;;;;;;;;4.10;99.90;;;;;;5016325;28;20352;-78
2022/11/26 01:08:47;;;;;;;;;;;4.10;99.90;;;;;;5016295;28;19921;-79
2022/11/26 01:11:15;;;;;;;;;;;4.10;99.90;;;;;;5033354;28;20020;-79
2022/11/26 01:13:44;;;;;;;;;;;4.20;99.90;;;;;;5020275;28;20380;-79
2022/11/26 01:16:21;;;;;;;;;;;4.10;99.90;;;;;;5017858;28;20016;-79
2022/11/26 01:18:47;;;;;;;;;;;4.10;99.90;;;;;;5021725;28;19925;-79
2022/11/26 01:21:13;;;;;;;;;;;4.10;99.90;;;;;;5013908;28;19925;-79
2022/11/26 01:23:38;;;;;;;;;;;4.00;99.90;;;;;;5016608;28;19932;-78
2022/11/26 01:26:04;;;;;;;;;;;4.00;99.90;;;;;;5014843;28;19968;-79
2022/11/26 01:28:30;;;;;;;;;;;4.00;99.90;;;;;;5034240;28;19921;-78
2022/11/26 01:30:55;;;;;;;;;;;4.00;99.90;;;;;;5016631;28;20508;-79
2022/11/26 01:33:21;;;;;;;;;;;4.20;99.90;;;;;;5015279;28;20004;-79
2022/11/26 01:35:46;;;;;;;;;;;4.00;99.90;;;;;;5016871;28;19921;-79
2022/11/26 01:38:13;;;;;;;;;;;4.00;99.90;;;;;;5039726;28;19925;-78
2022/11/26 01:40:52;;;;;;;;;;;4.00;99.90;;;;;;5024607;28;19925;-79
2022/11/26 01:43:26;;;;;;;;;;;3.90;99.90;;;;;;5022685;28;19960;-79
2022/11/26 01:45:53;;;;;;;;;;;3.90;99.90;;;;;;5016478;28;19968;-79
2022/11/26 01:48:29;;;;;;;;;;;3.90;99.90;;;;;;5017841;28;19925;-78
2022/11/26 01:50:57;;;;;;;;;;;3.90;99.90;;;;;;5012246;28;19931;-82
2022/11/26 01:53:31;;;;;;;;;;;3.80;99.90;;;;;;5016051;28;19941;-80
2022/11/26 01:56:23;;;;;;;;;;;3.80;99.90;;;;;;5018652;28;19926;-78
2022/11/26 01:58:54;;;;;;;;;;;3.90;99.90;;;;;;5019578;28;19922;-78
2022/11/26 02:01:20;;;;;;;;;;;3.90;99.90;;;;;;5039565;28;19921;-78
2022/11/26 02:03:51;;;;;;;;;;;3.90;99.90;;;;;;5016571;28;19992;-79
2022/11/26 02:06:20;;;;;;;;;;;3.80;99.90;;;;;;5019473;28;19928;-79
2022/11/26 02:08:45;;;;;;;;;;;3.90;99.90;;;;;;5015327;28;19964;-78
2022/11/26 02:11:16;;;;;;;;;;;3.80;99.90;;;;;;5012780;28;20329;-78
2022/11/26 02:13:42;;;;;;;;;;;3.80;99.90;;;;;;5034366;28;19975;-78
2022/11/26 02:16:14;;;;;;;;;;;3.80;99.90;;;;;;5016507;28;19928;-78
2022/11/26 02:18:43;;;;;;;;;;;3.70;99.90;;;;;;5017562;28;19944;-79
2022/11/26 02:21:13;;;;;;;;;;;3.70;99.90;;;;;;5035481;28;20271;-79
2022/11/26 02:23:59;;;;;;;;;;;3.70;99.90;;;;;;5017728;28;19921;-82
2022/11/26 02:26:46;;;;;;;;;;;3.70;99.90;;;;;;5019464;28;19936;-82
2022/11/26 02:29:15;;;;;;;;;;;3.70;99.90;;;;;;5039630;28;20015;-79
2022/11/26 02:31:45;;;;;;;;;;;3.70;99.90;;;;;;5024337;28;19925;-79
2022/11/26 02:34:13;;;;;;;;;;;3.50;99.90;;;;;;5034350;28;20120;-82
2022/11/26 02:36:57;;;;;;;;;;;3.50;99.90;;;;;;5028411;28;19922;-80
2022/11/26 02:39:24;;;;;;;;;;;3.40;99.90;;;;;;5013106;28;19976;-80
2022/11/26 02:41:54;;;;;;;;;;;3.40;99.90;;;;;;5028393;28;19932;-79
2022/11/26 02:44:24;;;;;;;;;;;3.50;99.90;;;;;;5018040;28;20230;-82
2022/11/26 02:46:53;;;;;;;;;;;3.50;99.90;;;;;;5033055;28;19924;-78
2022/11/26 02:49:20;;;;;;;;;;;3.40;99.90;;;;;;5019249;28;19925;-78
2022/11/26 02:51:48;;;;;;;;;;;3.40;99.90;;;;;;5016630;28;19929;-79
2022/11/26 02:54:14;;;;;;;;;;;3.40;99.90;;;;;;5019799;28;19921;-79
2022/11/26 02:56:40;;;;;;;;;;;3.40;99.90;;;;;;5010333;28;19921;-78
2022/11/26 02:59:06;;;;;;;;;;;3.50;99.90;;;;;;5011845;28;19928;-78
2022/11/26 03:01:36;;;;;;;;;;;3.50;99.90;;;;;;5029116;28;20395;-78
2022/11/26 03:04:04;;;;;;;;;;;3.50;99.90;;;;;;5016271;28;20009;-78
2022/11/26 03:06:31;;;;;;;;;;;3.50;99.90;;;;;;5013942;28;19926;-78
2022/11/26 03:08:57;;;;;;;;;;;3.40;99.90;;;;;;5023585;28;19974;-78
2022/11/26 03:11:22;;;;;;;;;;;3.40;99.90;;;;;;5032958;28;19933;-81
2022/11/26 03:13:48;;;;;;;;;;;3.40;99.90;;;;;;5005431;28;20380;-78
2022/11/26 03:16:13;;;;;;;;;;;3.40;99.90;;;;;;5023219;28;19921;-78
2022/11/26 03:18:39;;;;;;;;;;;3.30;99.90;;;;;;5034356;28;19925;-80
2022/11/26 03:21:05;;;;;;;;;;;3.30;99.90;;;;;;5015182;28;19925;-78
2022/11/26 03:23:30;;;;;;;;;;;3.30;99.90;;;;;;5017003;28;19922;-78
2022/11/26 03:25:56;;;;;;;;;;;3.30;99.90;;;;;;5017774;28;19932;-79
2022/11/26 03:28:21;;;;;;;;;;;3.30;99.90;;;;;;5007905;28;20362;-78
2022/11/26 03:30:50;;;;;;;;;;;3.20;99.90;;;;;;5020959;28;19925;-78
2022/11/26 03:33:16;;;;;;;;;;;3.20;99.90;;;;;;5014856;28;19932;-78
2022/11/26 03:35:42;;;;;;;;;;;3.20;99.90;;;;;;5018359;28;20185;-78
2022/11/26 03:38:07;;;;;;;;;;;3.20;99.90;;;;;;4994233;28;19922;-77
2022/11/26 03:40:33;;;;;;;;;;;3.20;99.90;;;;;;5019556;28;19929;-78
2022/11/26 03:42:58;;;;;;;;;;;3.20;99.90;;;;;;5017801;28;19925;-79
2022/11/26 03:45:24;;;;;;;;;;;3.20;99.90;;;;;;5013913;28;19925;-78
2022/11/26 03:47:50;;;;;;;;;;;3.20;99.90;;;;;;5028444;28;19925;-78
2022/11/26 03:50:15;;;;;;;;;;;3.30;99.90;;;;;;5030465;28;19930;-81
2022/11/26 03:52:41;;;;;;;;;;;3.30;99.90;;;;;;5017175;28;19934;-84
2022/11/26 03:55:07;;;;;;;;;;;3.20;99.90;;;;;;5019839;28;20300;-78
2022/11/26 03:57:32;;;;;;;;;;;3.20;99.90;;;;;;5033907;28;19937;-77
2022/11/26 03:59:58;;;;;;;;;;;3.10;99.90;;;;;;5023875;28;19925;-79
2022/11/26 04:02:23;;;;;;;;;;;3.10;99.90;;;;;;5025146;28;19996;-78
2022/11/26 04:04:49;;;;;;;;;;;3.00;99.90;;;;;;5024029;28;19925;-78
2022/11/26 04:07:15;;;;;;;;;;;3.10;99.90;;;;;;5033301;28;19989;-77
2022/11/26 04:09:40;;;;;;;;;;;3.10;99.90;;;;;;5028495;28;20015;-80
2022/11/26 04:12:06;;;;;;;;;;;3.10;99.90;;;;;;5036162;28;19929;-80
2022/11/26 04:14:31;;;;;;;;;;;3.10;99.90;;;;;;5022969;28;20142;-79
2022/11/26 04:16:57;;;;;;;;;;;3.10;99.90;;;;;;5015813;28;20269;-80
2022/11/26 04:19:23;;;;;;;;;;;3.10;99.90;;;;;;5021167;28;20283;-84
2022/11/26 04:21:48;;;;;;;;;;;3.00;99.90;;;;;;5028100;28;19922;-79
2022/11/26 04:24:14;;;;;;;;;;;3.10;99.90;;;;;;5025126;28;19959;-79
2022/11/26 04:26:39;;;;;;;;;;;3.10;99.90;;;;;;5020918;28;19921;-80
2022/11/26 04:29:05;;;;;;;;;;;3.00;99.90;;;;;;5017425;28;19928;-79
2022/11/26 04:31:30;;;;;;;;;;;3.00;99.90;;;;;;5022556;28;19926;-79
2022/11/26 04:33:56;;;;;;;;;;;3.00;99.90;;;;;;5019649;28;19922;-79
2022/11/26 04:36:22;;;;;;;;;;;3.00;99.90;;;;;;5027362;28;20123;-79
2022/11/26 04:38:47;;;;;;;;;;;3.00;99.90;;;;;;5015383;28;19921;-79
2022/11/26 04:41:13;;;;;;;;;;;3.00;99.90;;;;;;5026735;28;19921;-79
2022/11/26 04:43:38;;;;;;;;;;;3.00;99.90;;;;;;5035700;28;19972;-79
2022/11/26 04:46:04;;;;;;;;;;;2.90;99.90;;;;;;5025436;28;19932;-79
2022/11/26 04:48:29;;;;;;;;;;;2.90;99.90;;;;;;5018662;28;19921;-79
2022/11/26 04:50:55;;;;;;;;;;;3.00;99.90;;;;;;5021570;28;19931;-79
2022/11/26 04:53:21;;;;;;;;;;;2.90;99.90;;;;;;5020136;28;19921;-79
2022/11/26 04:55:48;;;;;;;;;;;2.90;99.90;;;;;;5026670;28;20418;-79
2022/11/26 04:58:14;;;;;;;;;;;2.90;99.90;;;;;;5013818;28;19921;-80
2022/11/26 05:00:39;;;;;;;;;;;2.90;99.90;;;;;;5019585;28;19984;-79
2022/11/26 05:03:05;;;;;;;;;;;3.00;99.90;;;;;;5019098;28;20367;-79
2022/11/26 05:05:30;;;;;;;;;;;3.00;99.90;;;;;;5017021;28;19925;-78
2022/11/26 05:07:56;;;;;;;;;;;2.90;99.90;;;;;;5030746;28;19925;-79
2022/11/26 05:10:21;;;;;;;;;;;2.90;99.90;;;;;;5018861;28;19929;-81
2022/11/26 05:12:47;;;;;;;;;;;2.90;99.90;;;;;;5022571;28;19930;-79
2022/11/26 05:15:13;;;;;;;;;;;2.90;99.90;;;;;;5025442;28;20398;-79
2022/11/26 05:17:38;;;;;;;;;;;2.90;99.90;;;;;;5021886;28;19983;-78
2022/11/26 05:20:05;;;;;;;;;;;2.90;99.90;;;;;;5019018;28;19922;-79
2022/11/26 05:22:31;;;;;;;;;;;2.90;99.90;;;;;;5023309;28;19929;-80
2022/11/26 05:24:56;;;;;;;;;;;3.00;99.90;;;;;;5023772;28;19921;-79
2022/11/26 05:27:22;;;;;;;;;;;3.00;99.90;;;;;;5015966;28;20364;-79
2022/11/26 05:29:48;;;;;;;;;;;3.00;99.90;;;;;;5033179;28;19928;-78
2022/11/26 05:32:13;;;;;;;;;;;3.00;99.90;;;;;;5017484;28;19964;-79
2022/11/26 05:34:39;;;;;;;;;;;3.00;99.90;;;;;;5013840;28;20024;-80
2022/11/26 05:37:05;;;;;;;;;;;3.00;99.90;;;;;;5024174;28;19927;-80
2022/11/26 05:39:30;;;;;;;;;;;3.00;99.90;;;;;;5035626;28;19921;-82
2022/11/26 05:41:56;;;;;;;;;;;3.00;99.90;;;;;;5016909;28;19967;-79
2022/11/26 05:44:21;;;;;;;;;;;3.10;99.90;;;;;;5033652;28;19921;-78
2022/11/26 05:46:47;;;;;;;;;;;3.00;99.90;;;;;;5019010;28;19929;-80
2022/11/26 05:49:12;;;;;;;;;;;3.00;99.90;;;;;;5026225;28;19933;-77
2022/11/26 05:51:38;;;;;;;;;;;3.00;99.90;;;;;;5019414;28;19921;-79
2022/11/26 05:54:03;;;;;;;;;;;3.00;99.90;;;;;;5017437;28;19984;-79
2022/11/26 05:56:29;;;;;;;;;;;3.00;99.90;;;;;;5036012;28;20377;-79
2022/11/26 05:58:55;;;;;;;;;;;3.00;99.90;;;;;;5015822;28;19928;-79
2022/11/26 06:01:20;;;;;;;;;;;3.00;99.90;;;;;;5013486;28;19967;-79
2022/11/26 06:03:46;;;;;;;;;;;3.00;99.90;;;;;;4998937;28;19936;-82
2022/11/26 06:06:11;;;;;;;;;;;3.00;99.90;;;;;;4990099;28;19952;-83
2022/11/26 06:08:37;;;;;;;;;;;3.00;99.90;;;;;;5019839;28;19968;-80
2022/11/26 06:11:02;;;;;;;;;;;3.00;99.90;;;;;;5023741;28;19925;-79
2022/11/26 06:13:28;;;;;;;;;;;3.00;99.90;;;;;;5019555;28;19953;-79
2022/11/26 06:15:53;;;;;;;;;;;3.00;99.90;;;;;;5036722;28;19922;-78
2022/11/26 06:18:19;;;;;;;;;;;3.00;99.90;;;;;;5021566;28;19920;-79
2022/11/26 06:20:44;;;;;;;;;;;3.10;99.90;;;;;;5013483;28;19948;-78
2022/11/26 06:23:10;;;;;;;;;;;3.10;99.90;;;;;;5015391;28;19921;-78
2022/11/26 06:25:38;;;;;;;;;;;3.10;99.90;;;;;;5024063;28;19921;-79
2022/11/26 06:28:03;;;;;;;;;;;3.10;99.90;;;;;;5014247;28;19921;-78
2022/11/26 06:30:29;;;;;;;;;;;3.10;99.90;;;;;;5026853;28;19921;-85
2022/11/26 06:32:55;;;;;;;;;;;3.10;99.90;;;;;;5008880;28;19944;-79
2022/11/26 06:35:20;;;;;;;;;;;3.20;99.90;;;;;;5025003;28;19929;-78
2022/11/26 06:37:46;;;;;;;;;;;3.10;99.90;;;;;;5018861;28;19967;-78
2022/11/26 06:40:15;;;;;;;;;;;3.20;99.90;;;;;;5029522;28;20009;-79
2022/11/26 06:42:41;;;;;;;;;;;3.30;99.90;;;;;;5005933;28;19983;-79
2022/11/26 06:45:06;;;;;;;;;;;3.30;99.90;;;;;;5022621;28;19963;-79
2022/11/26 06:47:32;;;;;;;;;;;3.40;99.90;;;;;;5014183;28;19925;-79
2022/11/26 06:49:57;;;;;;;;;;;3.30;99.90;;;;;;5012110;28;20068;-78
2022/11/26 06:52:23;;;;;;;;;;;3.30;99.90;;;;;;5009560;28;19947;-80
2022/11/26 06:54:49;;;;;;;;;;;3.30;99.90;;;;;;5017982;28;19929;-79
2022/11/26 06:57:14;;;;;;;;;;;3.40;99.90;;;;;;5021671;28;19925;-79
2022/11/26 06:59:40;;;;;;;;;;;3.30;99.90;;;;;;5021665;28;20418;-79
2022/11/26 07:02:05;;;;;;;;;;;3.30;99.90;;;;;;5018709;28;19921;-79
2022/11/26 07:04:31;;;;;;;;;;;3.20;99.90;;;;;;5016846;28;19928;-79
2022/11/26 07:06:56;;;;;;;;;;;3.30;99.90;;;;;;5029521;28;19973;-79
2022/11/26 07:09:22;;;;;;;;;;;3.20;99.90;;;;;;5017645;28;19975;-82
2022/11/26 07:11:48;;;;;;;;;;;3.20;99.90;;;;;;5023344;28;20319;-80
2022/11/26 07:14:14;;;;;;;;;;;3.10;99.90;;;;;;5024653;28;19921;-79
2022/11/26 07:16:40;;;;;;;;;;;3.10;99.90;;;;;;5015002;28;20423;-79
2022/11/26 07:19:05;;;;;;;;;;;3.20;99.90;;;;;;5015818;28;19921;-79
2022/11/26 07:21:31;;;;;;;;;;;3.10;99.90;;;;;;5034984;28;19921;-77
2022/11/26 07:23:57;;;;;;;;;;;3.10;99.90;;;;;;5034428;28;19972;-78
2022/11/26 07:26:22;;;;;;;;;;;3.20;99.90;;;;;;5016259;28;19971;-80
2022/11/26 07:28:48;;;;;;;;;;;3.20;99.90;;;;;;5020868;28;20292;-78
2022/11/26 07:31:16;;;;;;;;;;;3.30;99.90;;;;;;5022379;28;20008;-78
2022/11/26 07:33:41;;;;;;;;;;;3.20;99.90;;;;;;5018050;28;19944;-79
2022/11/26 07:36:10;;;;;;;;;;;3.20;99.90;;;;;;5023039;28;20376;-79
2022/11/26 07:38:35;;;;;;;;;;;3.30;99.90;;;;;;5023045;28;19940;-82
2022/11/26 07:41:02;;;;;;;;;;;3.30;99.90;;;;;;4994596;28;19929;-78
2022/11/26 07:43:28;;;;;;;;;;;3.30;99.90;;;;;;5023900;28;19921;-81
2022/11/26 07:45:53;;;;;;;;;;;3.40;99.90;;;;;;5022834;28;20208;-80
2022/11/26 07:48:19;;;;;;;;;;;3.30;99.90;;;;;;5021034;28;19925;-78
2022/11/26 07:50:45;;;;;;;;;;;3.40;99.90;;;;;;5022680;28;19925;-79
2022/11/26 07:53:11;;;;;;;;;;;3.50;99.90;;;;;;5009025;28;19960;-79
2022/11/26 07:55:37;;;;;;;;;;;3.60;99.90;;;;;;5016831;28;19921;-80
2022/11/26 07:58:02;;;;;;;;;;;3.70;99.90;;;;;;5007370;28;19925;-79
2022/11/26 08:00:28;;;;;;;;;;;3.80;99.90;;;;;;5051214;28;20004;-79
2022/11/26 08:02:54;;;;;;;;;;;3.80;99.90;;;;;;5035414;28;19968;-80
2022/11/26 08:05:19;;;;;;;;;;;3.80;99.90;;;;;;5040747;28;19922;-80
2022/11/26 08:07:45;;;;;;;;;;;3.80;99.90;;;;;;5015372;28;19921;-80
2022/11/26 08:10:11;;;;;;;;;;;3.90;99.90;;;;;;5001062;28;20011;-80
2022/11/26 08:12:36;;;;;;;;;;;3.90;99.90;;;;;;5032654;28;19922;-80
2022/11/26 08:15:02;;;;;;;;;;;3.90;99.90;;;;;;5016455;28;19965;-79
2022/11/26 08:17:27;;;;;;;;;;;4.00;99.90;;;;;;5024697;28;19924;-80
2022/11/26 08:19:53;;;;;;;;;;;4.00;99.90;;;;;;5032650;28;20338;-80
2022/11/26 08:22:18;;;;;;;;;;;4.10;99.90;;;;;;5028646;28;19921;-80
2022/11/26 08:24:44;;;;;;;;;;;4.10;99.90;;;;;;5017383;28;20031;-81
2022/11/26 08:27:10;;;;;;;;;;;4.10;99.90;;;;;;5031221;28;19932;-80
2022/11/26 08:29:36;;;;;;;;;;;4.20;99.90;;;;;;5018691;28;20371;-80
2022/11/26 08:32:02;;;;;;;;;;;4.20;99.90;;;;;;5035730;28;19927;-80
2022/11/26 08:34:27;;;;;;;;;;;4.30;99.90;;;;;;5031725;28;20408;-80
2022/11/26 08:36:53;;;;;;;;;;;4.40;99.90;;;;;;5015732;28;19925;-80
2022/11/26 08:39:19;;;;;;;;;;;4.40;99.90;;;;;;5017718;28;20052;-79
2022/11/26 08:41:45;;;;;;;;;;;4.40;99.90;;;;;;5032964;28;19921;-79
2022/11/26 08:44:10;;;;;;;;;;;4.50;99.90;;;;;;5016303;28;19928;-80
2022/11/26 08:46:36;;;;;;;;;;;4.60;99.90;;;;;;5036975;28;19921;-82
2022/11/26 08:49:02;;;;;;;;;;;4.60;99.90;;;;;;5032509;28;19921;-80
2022/11/26 08:51:28;;;;;;;;;;;4.70;99.90;;;;;;5048429;28;20431;-80
2022/11/26 08:53:54;;;;;;;;;;;4.70;99.90;;;;;;5034782;28;19921;-80
2022/11/26 08:56:19;;;;;;;;;;;4.80;99.90;;;;;;5034457;28;20368;-80
2022/11/26 08:58:46;;;;;;;;;;;4.80;99.90;;;;;;5031888;28;19921;-80
2022/11/26 09:01:14;;;;;;;;;;;4.90;99.90;;;;;;5007983;28;19925;-81
2022/11/26 09:03:40;;;;;;;;;;;4.90;99.90;;;;;;5037990;28;19924;-81
2022/11/26 09:06:06;;;;;;;;;;;5.00;99.90;;;;;;5034717;28;19932;-80
2022/11/26 09:08:43;;;;;;;;;;;5.00;99.90;;;;;;5017084;28;20268;-79
2022/11/26 09:11:10;;;;;;;;;;;5.10;99.90;;;;;;5031919;28;19921;-84
2022/11/26 09:13:35;;;;;;;;;;;5.20;99.90;;;;;;5032900;28;19956;-79
2022/11/26 09:16:01;;;;;;;;;;;5.40;99.90;;;;;;5032277;28;19973;-79
2022/11/26 09:18:26;;;;;;;;;;;5.40;99.90;;;;;;5034423;28;19975;-80
2022/11/26 09:20:52;;;;;;;;;;;5.50;99.90;;;;;;5017306;28;19925;-80
2022/11/26 09:23:17;;;;;;;;;;;5.50;99.90;;;;;;5043375;28;19960;-80
2022/11/26 09:25:43;;;;;;;;;;;5.60;99.90;;;;;;5028947;28;19921;-79
2022/11/26 09:28:08;;;;;;;;;;;5.50;99.90;;;;;;5019718;28;19921;-81
2022/11/26 09:30:34;;;;;;;;;;;5.60;99.90;;;;;;5014441;28;19964;-80
2022/11/26 09:32:59;;;;;;;;;;;5.60;99.90;;;;;;5031182;28;20355;-80
2022/11/26 09:35:25;;;;;;;;;;;5.70;99.90;;;;;;5018440;28;20378;-79
2022/11/26 09:37:51;;;;;;;;;;;5.90;99.90;;;;;;5034204;28;19921;-80
2022/11/26 09:40:17;;;;;;;;;;;6.10;99.90;;;;;;5020688;28;20296;-80
2022/11/26 09:42:55;;;;;;;;;;;6.20;99.90;;;;;;5026256;28;19975;-79
2022/11/26 09:45:45;;;;;;;;;;;6.20;99.90;;;;;;5033192;28;20315;-83
2022/11/26 09:48:16;;;;;;;;;;;6.20;99.90;;;;;;5034426;28;19921;-80
2022/11/26 09:50:43;;;;;;;;;;;6.30;99.90;;;;;;5032618;28;20011;-81
2022/11/26 09:53:18;;;;;;;;;;;6.30;99.90;;;;;;5021608;28;19956;-83
2022/11/26 09:55:47;;;;;;;;;;;6.30;99.90;;;;;;5020538;28;19984;-82
2022/11/26 09:58:12;;;;;;;;;;;6.40;99.90;;;;;;5027034;28;20316;-80
2022/11/26 10:00:48;;;;;;;;;;;6.50;99.90;;;;;;5014091;28;19921;-81
2022/11/26 10:03:15;;;;;;;;;;;6.60;99.90;;;;;;5014310;28;20347;-79
2022/11/26 10:05:47;;;;;;;;;;;6.60;99.90;;;;;;5020499;28;19921;-79
2022/11/26 10:08:19;;;;;;;;;;;6.60;99.90;;;;;;5033347;28;20323;-80
2022/11/26 10:10:54;;;;;;;;;;;6.60;99.90;;;;;;5046041;28;19921;-80
2022/11/26 10:13:23;;;;;;;;;;;6.70;99.90;;;;;;5014115;28;19925;-80
2022/11/26 10:15:54;;;;;;;;;;;6.70;99.90;;;;;;5018594;28;20314;-79
2022/11/26 10:18:29;;;;;;;;;;;6.80;99.90;;;;;;5021738;28;19987;-79
2022/11/26 10:21:03;;;;;;;;;;;6.90;99.90;;;;;;5021637;28;19927;-84
2022/11/26 10:23:47;;;;;;;;;;;7.00;99.90;;;;;;5030834;28;19948;-79
2022/11/26 10:26:19;;;;;;;;;;;7.10;99.90;;;;;;5019974;28;20020;-80
2022/11/26 10:28:46;;;;;;;;;;;7.10;99.90;;;;;;5017415;28;19932;-80
2022/11/26 10:31:16;;;;;;;;;;;7.00;99.90;;;;;;5017743;28;19921;-80
2022/11/26 10:33:49;;;;;;;;;;;7.10;99.90;;;;;;5013001;28;20340;-80
2022/11/26 10:36:19;;;;;;;;;;;7.10;99.90;;;;;;5014628;28;19921;-83
2022/11/26 10:38:45;;;;;;;;;;;7.10;99.90;;;;;;5012987;28;20012;-80
2022/11/26 10:41:10;;;;;;;;;;;7.10;99.90;;;;;;5017408;28;20040;-79
2022/11/26 10:43:36;;;;;;;;;;;7.10;99.90;;;;;;5012949;28;19921;-80
2022/11/26 10:46:01;;;;;;;;;;;7.20;99.90;;;;;;5016880;28;19927;-80
2022/11/26 10:48:33;;;;;;;;;;;7.20;99.90;;;;;;5019879;28;19921;-80
2022/11/26 10:51:13;;;;;;;;;;;7.20;99.90;;;;;;5015101;28;19929;-80
2022/11/26 10:53:51;;;;;;;;;;;7.20;99.90;;;;;;5018983;28;19925;-81
2022/11/26 10:56:18;;;;;;;;;;;7.30;99.90;;;;;;5013576;28;19933;-80
2022/11/26 10:58:44;;;;;;;;;;;7.40;99.90;;;;;;5024136;28;19928;-79
2022/11/26 11:01:12;;;;;;;;;;;7.40;99.90;;;;;;5025406;28;19921;-80
2022/11/26 11:03:49;;;;;;;;;;;7.40;99.90;;;;;;5022157;28;20071;-82
2022/11/26 11:06:18;;;;;;;;;;;7.50;99.90;;;;;;5028781;28;19928;-81
2022/11/26 11:08:44;;;;;;;;;;;7.50;99.90;;;;;;5013193;28;19933;-82
2022/11/26 11:11:35;;;;;;;;;;;7.50;99.90;;;;;;5019056;28;19929;-81
2022/11/26 11:14:01;;;;;;;;;;;7.60;99.90;;;;;;5026917;28;20364;-82
2022/11/26 11:16:31;;;;;;;;;;;7.60;99.90;;;;;;5022694;28;19967;-80
2022/11/26 11:19:01;;;;;;;;;;;7.60;99.90;;;;;;5019931;28;20014;-81
2022/11/26 11:21:36;;;;;;;;;;;7.70;99.90;;;;;;5017186;28;19922;-82
2022/11/26 11:24:06;;;;;;;;;;;7.70;99.90;;;;;;5023278;28;19928;-81
2022/11/26 11:26:45;;;;;;;;;;;7.70;99.90;;;;;;5030872;28;19921;-81
2022/11/26 11:29:31;;;;;;;;;;;7.70;99.90;;;;;;5018298;28;19971;-81
2022/11/26 11:31:58;;;;;;;;;;;7.70;99.90;;;;;;5037813;28;20280;-80
2022/11/26 11:34:29;;;;;;;;;;;7.80;99.90;;;;;;5033389;28;20004;-82
2022/11/26 11:37:13;;;;;;;;;;;7.80;99.90;;;;;;5026921;28;20399;-79
2022/11/26 11:39:39;;;;;;;;;;;7.80;99.90;;;;;;5026905;28;19929;-82
2022/11/26 11:42:06;;;;;;;;;;;7.90;99.90;;;;;;5041607;28;20017;-80
2022/11/26 11:44:48;;;;;;;;;;;7.90;99.90;;;;;;5047546;28;20045;-80
2022/11/26 11:47:32;;;;;;;;;;;8.00;99.90;;;;;;5024297;28;20012;-83
2022/11/26 11:50:07;;;;;;;;;;;8.10;99.90;;;;;;5021513;28;19943;-80
2022/11/26 11:52:38;;;;;;;;;;;8.10;99.90;;;;;;5020043;28;19926;-82
2022/11/26 11:55:12;;;;;;;;;;;8.20;99.90;;;;;;5016642;28;19975;-81
2022/11/26 11:57:50;;;;;;;;;;;8.20;99.90;;;;;;5018588;28;20295;-81
2022/11/26 12:00:17;;;;;;;;;;;8.20;99.90;;;;;;5016045;28;19933;-82
2022/11/26 12:02:54;;;;;;;;;;;8.30;99.90;;;;;;5017148;28;19932;-83
2022/11/26 12:05:39;;;;;;;;;;;8.30;99.90;;;;;;5021809;28;20007;-81
2022/11/26 12:08:11;;;;;;;;;;;8.40;99.90;;;;;;5026546;28;20360;-82
2022/11/26 12:10:36;;;;;;;;;;;8.30;99.90;;;;;;5030486;28;19948;-80
2022/11/26 12:13:04;;;;;;;;;;;8.30;99.90;;;;;;5021634;28;20388;-80
2022/11/26 12:15:44;;;;;;;;;;;8.30;99.90;;;;;;5027450;28;20051;-82
2022/11/26 12:18:16;;;;;;;;;;;8.30;99.90;;;;;;5032833;28;19921;-81
2022/11/26 12:20:45;;;;;;;;;;;8.30;99.90;;;;;;5019441;28;19984;-81
2022/11/26 12:23:26;;;;;;;;;;;8.30;99.90;;;;;;5016342;28;20464;-82
2022/11/26 12:26:05;;;;;;;;;;;8.40;99.90;;;;;;5017351;28;20311;-81
2022/11/26 12:28:32;;;;;;;;;;;8.30;99.90;;;;;;5034020;28;19940;-81
2022/11/26 12:31:07;;;;;;;;;;;8.30;99.90;;;;;;5016387;28;19975;-81
2022/11/26 12:33:35;;;;;;;;;;;8.30;99.90;;;;;;5017850;28;20296;-81
2022/11/26 12:36:06;;;;;;;;;;;8.30;99.90;;;;;;5041985;28;19949;-83
2022/11/26 12:38:38;;;;;;;;;;;8.30;99.90;;;;;;5035894;28;19922;-81
2022/11/26 12:41:13;;;;;;;;;;;8.30;99.90;;;;;;5035307;28;19928;-81
2022/11/26 12:43:59;;;;;;;;;;;8.30;99.90;;;;;;5035267;28;19925;-81
2022/11/26 12:46:43;;;;;;;;;;;8.30;99.90;;;;;;5014938;28;19961;-81
2022/11/26 12:49:16;;;;;;;;;;;8.30;99.90;;;;;;5016831;28;19932;-82
2022/11/26 12:52:01;;;;;;;;;;;8.30;99.90;;;;;;5039928;28;20388;-82
2022/11/26 12:54:38;;;;;;;;;;;8.40;99.90;;;;;;5015248;28;20019;-80
2022/11/26 12:57:25;;;;;;;;;;;8.40;99.90;;;;;;5015194;28;20296;-80
2022/11/26 12:59:54;;;;;;;;;;;8.40;99.90;;;;;;5018431;28;20376;-82
2022/11/26 13:02:25;;;;;;;;;;;8.40;99.90;;;;;;5021681;28;19922;-81
2022/11/26 13:04:51;;;;;;;;;;;8.40;99.90;;;;;;5040067;28;19952;-81
2022/11/26 13:07:20;;;;;;;;;;;8.40;99.90;;;;;;5016682;28;19921;-81
2022/11/26 13:09:54;;;;;;;;;;;8.40;99.90;;;;;;5016957;28;19921;-81
2022/11/26 13:12:19;;;;;;;;;;;8.50;99.90;;;;;;5016355;28;19921;-86
2022/11/26 13:14:57;;;;;;;;;;;8.50;99.90;;;;;;5019670;28;19963;-81
2022/11/26 13:17:28;;;;;;;;;;;8.50;99.90;;;;;;5017126;28;19925;-80
2022/11/26 13:20:14;;;;;;;;;;;8.60;99.90;;;;;;5026792;28;19921;-81
2022/11/26 13:22:49;;;;;;;;;;;8.60;99.90;;;;;;5022480;28;19944;-83
2022/11/26 13:25:33;;;;;;;;;;;8.60;99.90;;;;;;5016745;28;20055;-83
2022/11/26 13:28:16;;;;;;;;;;;8.60;99.90;;;;;;5014108;28;19929;-82
2022/11/26 13:30:46;;;;;;;;;;;8.60;99.90;;;;;;5017921;28;19921;-82
2022/11/26 13:33:34;;;;;;;;;;;8.60;99.90;;;;;;5017039;28;20008;-82
2022/11/26 13:36:18;;;;;;;;;;;8.60;99.90;;;;;;5014572;28;19941;-82
2022/11/26 13:38:50;;;;;;;;;;;8.60;99.90;;;;;;5020731;28;19927;-81
2022/11/26 13:41:33;;;;;;;;;;;8.50;99.90;;;;;;5034624;28;19928;-82
2022/11/26 13:44:07;;;;;;;;;;;8.50;99.90;;;;;;5019835;28;19957;-82
2022/11/26 13:46:36;;;;;;;;;;;8.50;99.90;;;;;;5014737;28;19933;-81
2022/11/26 13:49:06;;;;;;;;;;;8.50;99.90;;;;;;5017038;28;20032;-83
2022/11/26 13:51:45;;;;;;;;;;;8.40;99.90;;;;;;5014660;28;19921;-81
2022/11/26 13:54:10;;;;;;;;;;;8.50;99.90;;;;;;5014386;28;19975;-83
2022/11/26 13:56:37;;;;;;;;;;;8.40;99.90;;;;;;5014091;28;19925;-82
2022/11/26 13:59:11;;;;;;;;;;;8.40;99.90;;;;;;5016872;28;20449;-82
2022/11/26 14:01:40;;;;;;;;;;;8.40;99.90;;;;;;5025514;28;20018;-82
2022/11/26 14:04:13;;;;;;;;;;;8.40;99.90;;;;;;5027854;28;19921;-82
2022/11/26 14:06:57;;;;;;;;;;;8.40;99.90;;;;;;5020260;28;20240;-82
2022/11/26 14:09:41;;;;;;;;;;;8.40;99.90;;;;;;5013714;28;19929;-83
2022/11/26 14:12:07;;;;;;;;;;;8.40;99.90;;;;;;5033294;28;20354;-82
2022/11/26 14:14:34;;;;;;;;;;;8.40;99.90;;;;;;5024021;28;19948;-82
2022/11/26 14:17:00;;;;;;;;;;;8.40;99.90;;;;;;5013930;28;19921;-82
2022/11/26 14:19:43;;;;;;;;;;;8.40;99.90;;;;;;5029444;28;19925;-82
2022/11/26 14:22:18;;;;;;;;;;;8.40;99.90;;;;;;5015393;28;20320;-82
2022/11/26 14:24:47;;;;;;;;;;;8.40;99.90;;;;;;5026952;28;19929;-81
2022/11/26 14:27:13;;;;;;;;;;;8.40;99.90;;;;;;5046033;28;20369;-81
2022/11/26 14:29:39;;;;;;;;;;;8.40;99.90;;;;;;5013802;28;20008;-81
2022/11/26 14:32:07;;;;;;;;;;;8.30;99.90;;;;;;5012550;28;19921;-81
2022/11/26 14:34:38;;;;;;;;;;;8.30;99.90;;;;;;5040163;28;19976;-82
2022/11/26 14:37:14;;;;;;;;;;;8.30;99.90;;;;;;5034733;28;19925;-82
2022/11/26 14:39:39;;;;;;;;;;;8.30;99.90;;;;;;5013748;28;19975;-82
2022/11/26 14:42:05;;;;;;;;;;;8.30;99.90;;;;;;5031184;28;19921;-81